Time;durP1;ratioP1;P1;durP2;ratioP2;P2;SDS_P1;SDS_P2;PMS_P1;PMS_P2;Temp;Humidity;BMP_temperature;BMP_pressure;BME280_temperature;BME280_humidity;BME280_pressure;Samples;Min_cycle;Max_cycle;Signal;HPM_P1;HPM_P2
2022/07/09 00:02:27;;;;;;;14.40;3.50;;;;;;;25.99;31.61;98802.73;25048;1316;3026300;-62
2022/07/09 00:04:56;;;;;;;13.40;2.90;;;;;;;26.05;31.72;98802.55;25046;1314;3026316;-61
2022/07/09 00:07:26;;;;;;;14.20;2.60;;;;;;;26.04;31.63;98800.60;25078;1316;3052198;-61
2022/07/09 00:09:58;;;;;;;14.80;2.80;;;;;;;26.08;31.52;98795.90;25050;1315;3027051;-64
2022/07/09 00:12:27;;;;;;;12.70;3.00;;;;;;;26.07;31.61;98795.67;25057;1315;3027064;-62
2022/07/09 00:14:56;;;;;;;13.70;2.90;;;;;;;26.08;31.55;98795.20;25089;1315;3049434;-64
2022/07/09 00:17:25;;;;;;;14.50;2.90;;;;;;;26.08;31.68;98799.77;25053;1315;3028135;-65
2022/07/09 00:19:56;;;;;;;9.30;2.40;;;;;;;26.07;31.73;98797.11;25101;1316;3055854;-63
2022/07/09 00:22:25;;;;;;;15.00;3.20;;;;;;;26.07;31.64;98793.39;25073;1316;3026740;-65
2022/07/09 00:24:54;;;;;;;22.00;3.90;;;;;;;26.07;31.52;98795.71;25039;1315;3027668;-65
2022/07/09 00:27:23;;;;;;;14.00;3.00;;;;;;;26.05;31.63;98797.16;25164;1315;3055807;-66
2022/07/09 00:29:52;;;;;;;15.60;3.80;;;;;;;26.04;31.70;98791.64;25047;1315;3026552;-63
2022/07/09 00:32:21;;;;;;;12.70;3.40;;;;;;;26.02;31.92;98794.63;25080;1315;3055001;-63
2022/07/09 00:34:50;;;;;;;17.20;3.70;;;;;;;26.00;31.84;98794.61;25136;1315;3026696;-66
2022/07/09 00:37:19;;;;;;;17.20;4.30;;;;;;;25.98;31.89;98795.66;25081;1316;3054352;-66
2022/07/09 00:39:48;;;;;;;20.70;3.80;;;;;;;25.94;32.05;98797.06;25022;1316;3026307;-67
2022/07/09 00:42:17;;;;;;;9.40;3.20;;;;;;;25.90;31.95;98798.85;25103;1314;3050521;-64
2022/07/09 00:44:48;;;;;;;17.20;4.40;;;;;;;25.88;32.03;98795.95;25129;1315;3026598;-65
2022/07/09 00:47:17;;;;;;;14.20;3.50;;;;;;;25.85;32.24;98792.63;25078;1319;3028973;-65
2022/07/09 00:49:46;;;;;;;16.90;3.90;;;;;;;25.83;32.32;98790.34;25130;1315;3051635;-62
2022/07/09 00:52:17;;;;;;;12.60;4.30;;;;;;;25.81;32.34;98790.38;25013;1317;3026681;-66
2022/07/09 00:54:46;;;;;;;14.50;3.80;;;;;;;25.78;32.53;98791.67;25086;1316;3071073;-63
2022/07/09 00:57:15;;;;;;;10.10;3.80;;;;;;;25.74;32.61;98790.23;25048;1316;3026571;-67
2022/07/09 00:59:43;;;;;;;12.60;3.50;;;;;;;25.70;32.57;98790.55;24997;1318;3052211;-61
2022/07/09 01:02:12;;;;;;;13.80;3.60;;;;;;;25.64;32.62;98791.30;25029;1316;3026474;-61
2022/07/09 01:04:41;;;;;;;11.10;3.70;;;;;;;25.53;32.97;98793.29;25069;1315;3055200;-61
2022/07/09 01:07:10;;;;;;;16.90;4.40;;;;;;;25.41;33.39;98788.98;25076;1315;3026622;-64
2022/07/09 01:09:40;;;;;;;15.80;4.40;;;;;;;25.34;33.94;98792.80;25068;1316;3052394;-63
2022/07/09 01:12:10;;;;;;;20.90;5.60;;;;;;;25.21;34.49;98790.67;25049;1316;3027068;-63
2022/07/09 01:14:39;;;;;;;23.40;6.00;;;;;;;25.10;35.05;98794.13;25096;1315;3026629;-64
2022/07/09 01:17:08;;;;;;;17.30;6.40;;;;;;;24.96;35.67;98796.33;25082;1316;3051630;-62
2022/07/09 01:19:37;;;;;;;34.90;12.20;;;;;;;24.84;36.32;98793.82;25083;1316;3027812;-65
2022/07/09 01:22:06;;;;;;;62.20;21.80;;;;;;;24.76;37.04;98790.66;25121;1316;3057225;-62
2022/07/09 01:24:36;;;;;;;67.50;24.40;;;;;;;24.66;38.31;98791.67;25030;1316;3026325;-63
2022/07/09 01:27:05;;;;;;;88.10;29.30;;;;;;;24.53;39.35;98799.17;25086;1316;3027023;-60
2022/07/09 01:29:35;;;;;;;104.20;34.70;;;;;;;24.36;40.23;98795.75;25090;1316;3057249;-63
2022/07/09 01:32:04;;;;;;;156.90;58.20;;;;;;;24.20;41.33;98796.70;25049;1319;3027019;-62
2022/07/09 01:34:36;;;;;;;118.70;47.80;;;;;;;24.04;43.61;98795.64;25039;1316;3051931;-63
2022/07/09 01:37:05;;;;;;;63.70;25.80;;;;;;;23.89;44.92;98794.42;25089;1315;3027034;-63
2022/07/09 01:39:34;;;;;;;55.20;23.50;;;;;;;23.72;46.51;98792.55;25042;1314;3026279;-64
2022/07/09 01:42:03;;;;;;;52.00;23.20;;;;;;;23.57;47.66;98793.17;25074;1316;3054934;-62
2022/07/09 01:44:32;;;;;;;55.30;18.20;;;;;;;23.47;48.12;98792.94;25030;1316;3025997;-63
2022/07/09 01:47:02;;;;;;;38.70;18.40;;;;;;;23.47;47.23;98794.38;25036;1318;3026962;-64
2022/07/09 01:49:31;;;;;;;36.00;16.30;;;;;;;23.49;45.11;98790.10;25124;1316;3026638;-63
2022/07/09 01:52:00;;;;;;;35.50;13.90;;;;;;;23.54;44.91;98794.13;25050;1316;3058720;-62
2022/07/09 01:54:29;;;;;;;31.90;10.30;;;;;;;23.53;42.81;98797.92;25088;1316;3026584;-65
2022/07/09 01:56:58;;;;;;;40.50;13.40;;;;;;;23.56;43.56;98798.41;25027;1316;3054763;-62
2022/07/09 01:59:27;;;;;;;32.10;13.70;;;;;;;23.55;44.34;98801.27;25092;1319;3026558;-63
2022/07/09 02:01:56;;;;;;;43.70;17.10;;;;;;;23.49;46.76;98801.92;25032;1316;3053818;-62
2022/07/09 02:04:25;;;;;;;43.50;16.70;;;;;;;23.39;48.10;98802.05;25109;1316;3026236;-62
2022/07/09 02:06:57;;;;;;;37.60;17.50;;;;;;;23.36;48.27;98804.95;25110;1316;3049957;-62
2022/07/09 02:09:26;;;;;;;46.50;18.60;;;;;;;23.34;48.81;98804.14;25061;1316;3027014;-63
2022/07/09 02:11:55;;;;;;;44.00;17.00;;;;;;;23.29;49.31;98803.12;25094;1316;3026501;-64
2022/07/09 02:14:25;;;;;;;37.60;14.70;;;;;;;23.18;50.15;98802.60;25109;1316;3048047;-63
2022/07/09 02:16:54;;;;;;;42.20;14.60;;;;;;;23.11;50.46;98805.23;25067;1316;3026168;-64
2022/07/09 02:19:23;;;;;;;37.40;16.60;;;;;;;23.11;50.44;98803.69;25087;1316;3068590;-63
2022/07/09 02:21:52;;;;;;;42.30;17.50;;;;;;;23.16;49.83;98805.05;25035;1314;3025940;-61
2022/07/09 02:24:21;;;;;;;35.00;17.20;;;;;;;23.15;50.30;98814.80;25090;1316;3052343;-61
2022/07/09 02:26:50;;;;;;;32.00;17.00;;;;;;;23.11;50.74;98820.48;25017;1315;3026336;-63
2022/07/09 02:29:19;;;;;;;39.30;16.10;;;;;;;23.04;51.50;98829.91;25074;1316;3055578;-68
2022/07/09 02:31:48;;;;;;;35.00;16.30;;;;;;;22.99;50.86;98849.06;25061;1316;3027040;-63
2022/07/09 02:34:17;;;;;;;33.20;13.60;;;;;;;22.77;52.23;98866.05;25091;1316;3051240;-67
2022/07/09 02:36:46;;;;;;;30.80;13.80;;;;;;;22.64;50.12;98869.06;25053;1318;3026551;-66
2022/07/09 02:39:16;;;;;;;35.30;15.60;;;;;;;22.63;49.72;98865.77;25008;1318;3056343;-67
2022/07/09 02:41:46;;;;;;;41.40;16.10;;;;;;;22.60;49.83;98861.11;25040;1315;3026594;-63
2022/07/09 02:44:15;;;;;;;36.10;15.10;;;;;;;22.56;50.63;98866.98;25050;1318;3026107;-64
2022/07/09 02:46:45;;;;;;;31.80;12.70;;;;;;;22.46;53.15;98866.69;25074;1317;3056309;-64
2022/07/09 02:49:15;;;;;;;28.90;11.80;;;;;;;22.25;56.48;98861.50;25085;1316;3026538;-61
2022/07/09 02:51:44;;;;;;;20.00;11.40;;;;;;;22.12;58.86;98859.34;25028;1319;3026457;-63
2022/07/09 02:54:13;;;;;;;21.60;11.20;;;;;;;22.03;60.52;98863.39;25081;1315;3058713;-64
2022/07/09 02:56:42;;;;;;;24.60;12.00;;;;;;;22.07;59.81;98871.11;25035;1315;3026196;-63
2022/07/09 02:59:11;;;;;;;16.40;11.00;;;;;;;22.07;61.51;98873.31;25300;1318;3054640;-62
2022/07/09 03:01:41;;;;;;;17.60;10.40;;;;;;;21.93;62.99;98878.99;25407;1317;3026437;-61
2022/07/09 03:04:09;;;;;;;19.60;9.10;;;;;;;21.79;65.32;98868.73;25483;1317;3026466;-61
2022/07/09 03:06:38;;;;;;;15.20;10.30;;;;;;;22.10;65.37;98863.50;25123;1316;3051413;-65
2022/07/09 03:09:08;;;;;;;22.80;10.60;;;;;;;22.19;65.00;98854.20;25087;1318;3026579;-62
2022/07/09 03:11:38;;;;;;;23.40;10.50;;;;;;;22.04;65.75;98852.95;25148;1315;3052714;-65
2022/07/09 03:14:08;;;;;;;26.90;12.30;;;;;;;22.03;65.66;98849.66;25038;1318;3026744;-65
2022/07/09 03:16:37;;;;;;;19.30;11.80;;;;;;;21.89;66.49;98850.46;25091;1315;3026600;-62
2022/07/09 03:19:06;;;;;;;25.10;12.90;;;;;;;21.72;67.09;98852.91;25041;1318;3028873;-64
2022/07/09 03:21:36;;;;;;;23.90;12.00;;;;;;;21.54;67.85;98851.52;25081;1318;3051887;-66
2022/07/09 03:24:08;;;;;;;19.80;9.30;;;;;;;21.55;68.10;98848.61;25031;1315;3026531;-63
2022/07/09 03:26:37;;;;;;;19.00;11.40;;;;;;;22.19;65.90;98844.38;25079;1317;3051351;-65
2022/07/09 03:29:07;;;;;;;23.10;12.00;;;;;;;22.28;65.16;98846.81;25045;1315;3027017;-65
2022/07/09 03:31:36;;;;;;;26.10;11.10;;;;;;;22.30;65.18;98844.58;25084;1316;3048015;-64
2022/07/09 03:34:06;;;;;;;16.90;10.70;;;;;;;22.11;65.56;98848.77;25008;1318;3029758;-62
2022/07/09 03:36:36;;;;;;;18.10;10.50;;;;;;;21.99;66.04;98851.35;25088;1316;3070677;-66
2022/07/09 03:39:06;;;;;;;22.50;11.00;;;;;;;21.88;66.29;98852.00;25131;1316;3026786;-63
2022/07/09 03:41:35;;;;;;;19.80;11.50;;;;;;;21.77;66.67;98857.02;25095;1316;3029111;-61
2022/07/09 03:44:04;;;;;;;15.30;8.90;;;;;;;21.78;66.82;98857.40;25044;1316;3071347;-66
2022/07/09 03:46:33;;;;;;;18.90;11.10;;;;;;;22.19;65.84;98857.55;25107;1316;3026647;-63
2022/07/09 03:49:05;;;;;;;17.20;9.50;;;;;;;22.35;65.18;98859.04;25131;1314;3051680;-65
2022/07/09 03:51:35;;;;;;;16.10;10.30;;;;;;;22.28;65.40;98856.45;25133;1315;3026251;-65
2022/07/09 03:54:04;;;;;;;17.60;10.70;;;;;;;22.31;65.51;98857.60;25035;1316;3029464;-66
2022/07/09 03:56:34;;;;;;;17.90;10.60;;;;;;;22.25;65.70;98854.41;25105;1315;3050259;-61
2022/07/09 03:59:03;;;;;;;21.10;12.10;;;;;;;22.19;65.85;98854.70;25075;1316;3026529;-62
2022/07/09 04:01:32;;;;;;;15.60;10.80;;;;;;;22.11;65.92;98854.95;25059;1316;3054762;-63
2022/07/09 04:04:01;;;;;;;19.30;9.80;;;;;;;22.12;65.86;98854.27;25099;1315;3026194;-65
2022/07/09 04:06:30;;;;;;;15.60;9.50;;;;;;;22.59;64.55;98859.48;25097;1316;3052200;-66
2022/07/09 04:09:03;;;;;;;19.50;11.50;;;;;;;22.69;63.99;98862.71;25121;1316;3026844;-64
2022/07/09 04:11:33;;;;;;;21.90;11.70;;;;;;;22.64;63.71;98860.39;25135;1316;3059316;-64
2022/07/09 04:14:02;;;;;;;23.40;11.10;;;;;;;22.45;64.26;98863.30;25125;1316;3026448;-65
2022/07/09 04:16:31;;;;;;;28.10;11.70;;;;;;;22.35;64.82;98858.40;25058;1315;3026664;-65
2022/07/09 04:19:01;;;;;;;16.90;11.80;;;;;;;22.27;64.97;98856.55;25090;1316;3057975;-65
2022/07/09 04:21:30;;;;;;;19.20;11.90;;;;;;;22.16;65.54;98855.04;25058;1315;3026792;-63
2022/07/09 04:23:59;;;;;;;17.90;12.10;;;;;;;22.16;65.59;98849.39;25107;1315;3054511;-63
2022/07/09 04:26:29;;;;;;;16.60;9.60;;;;;;;22.28;65.53;98847.30;25085;1316;3027751;-64
2022/07/09 04:28:58;;;;;;;17.00;10.30;;;;;;;22.86;63.65;98849.94;25063;1315;3027066;-62
2022/07/09 04:31:26;;;;;;;16.50;10.70;;;;;;;23.14;62.25;98847.11;25034;1316;3054614;-63
2022/07/09 04:33:55;;;;;;;21.60;11.80;;;;;;;22.98;62.39;98848.06;25097;1316;3026292;-68
2022/07/09 04:36:25;;;;;;;18.80;11.60;;;;;;;22.84;62.63;98850.48;25094;1316;3054626;-64
2022/07/09 04:38:55;;;;;;;19.70;11.70;;;;;;;22.61;62.87;98854.58;25084;1316;3027286;-63
2022/07/09 04:41:24;;;;;;;21.60;12.10;;;;;;;22.46;63.76;98858.00;25140;1315;3026748;-64
2022/07/09 04:43:53;;;;;;;19.90;12.50;;;;;;;22.35;64.45;98855.73;25102;1316;3026455;-64
2022/07/09 04:46:22;;;;;;;23.10;13.10;;;;;;;22.21;64.73;98857.16;25091;1314;3051540;-65
2022/07/09 04:48:51;;;;;;;21.40;12.40;;;;;;;22.16;65.25;98854.61;25227;1315;3026502;-63
2022/07/09 04:51:20;;;;;;;16.50;11.40;;;;;;;22.16;65.37;98851.89;25128;1316;3054513;-63
2022/07/09 04:53:49;;;;;;;17.20;9.30;;;;;;;22.27;65.40;98848.20;25120;1316;3027947;-67
2022/07/09 04:56:18;;;;;;;18.10;10.90;;;;;;;22.95;63.01;98845.40;25108;1316;3050604;-66
2022/07/09 04:58:53;;;;;;;19.90;11.70;;;;;;;23.40;61.36;98846.92;25125;1316;3026555;-64
2022/07/09 05:01:23;;;;;;;24.00;11.70;;;;;;;23.38;61.26;98851.12;25095;1316;3054798;-68
2022/07/09 05:03:52;;;;;;;21.50;12.50;;;;;;;23.17;61.31;98849.73;25206;1316;3026649;-69
2022/07/09 05:06:21;;;;;;;23.40;12.20;;;;;;;22.97;62.09;98854.30;25097;1318;3052144;-68
2022/07/09 05:08:51;;;;;;;26.30;13.30;;;;;;;22.87;62.80;98844.98;25082;1316;3027003;-66
2022/07/09 05:11:21;;;;;;;20.50;12.50;;;;;;;22.88;62.86;98844.02;25082;1316;3026846;-72
2022/07/09 05:13:51;;;;;;;19.70;13.10;;;;;;;22.85;62.33;98847.96;25075;1316;3026274;-67
2022/07/09 05:16:20;;;;;;;17.20;13.10;;;;;;;22.85;62.75;98844.33;25135;1315;3028348;-69
2022/07/09 05:18:49;;;;;;;24.50;13.00;;;;;;;22.86;63.26;98843.52;25088;1315;3057900;-65
2022/07/09 05:21:18;;;;;;;29.60;13.70;;;;;;;22.86;63.33;98840.67;25088;1318;3026392;-67
2022/07/09 05:23:47;;;;;;;27.60;13.10;;;;;;;22.97;62.96;98839.48;25093;1315;3054391;-65
2022/07/09 05:26:16;;;;;;;27.00;13.80;;;;;;;23.01;61.96;98839.52;25089;1317;3026679;-64
2022/07/09 05:28:46;;;;;;;26.10;14.30;;;;;;;22.94;62.19;98842.45;25027;1318;3054049;-62
2022/07/09 05:31:15;;;;;;;24.90;13.80;;;;;;;22.94;62.85;98842.75;25084;1315;3026604;-63
2022/07/09 05:33:44;;;;;;;23.30;13.60;;;;;;;22.98;62.84;98837.73;25046;1315;3051419;-64
2022/07/09 05:36:13;;;;;;;27.80;13.80;;;;;;;23.09;61.25;98835.50;25096;1315;3026922;-65
2022/07/09 05:38:41;;;;;;;23.20;14.50;;;;;;;23.13;62.35;98837.03;25098;1316;3071024;-67
2022/07/09 05:41:11;;;;;;;19.10;10.30;;;;;;;23.13;62.95;98831.50;25105;1317;3027755;-65
2022/07/09 05:43:40;;;;;;;17.00;10.90;;;;;;;23.80;60.92;98834.41;25141;1315;3053321;-68
2022/07/09 05:46:09;;;;;;;19.30;11.60;;;;;;;24.23;59.34;98829.07;25083;1315;3027423;-66
2022/07/09 05:48:38;;;;;;;22.50;12.60;;;;;;;24.36;59.10;98829.12;25129;1316;3054452;-66
2022/07/09 05:51:07;;;;;;;24.60;12.80;;;;;;;24.14;58.73;98827.13;25119;1315;3026729;-66
2022/07/09 05:53:36;;;;;;;25.00;12.30;;;;;;;24.03;58.85;98829.81;25123;1315;3052783;-62
2022/07/09 05:56:06;;;;;;;21.40;12.70;;;;;;;24.12;58.74;98829.34;25091;1315;3026614;-64
2022/07/09 05:58:37;;;;;;;23.90;13.00;;;;;;;24.19;58.73;98827.60;25074;1316;3058976;-62
2022/07/09 06:01:06;;;;;;;24.10;13.50;;;;;;;24.20;58.35;98828.86;25084;1315;3030318;-64
2022/07/09 06:03:35;;;;;;;28.50;14.30;;;;;;;24.19;58.29;98825.46;25094;1315;3027021;-63
2022/07/09 06:06:04;;;;;;;21.10;12.60;;;;;;;24.21;57.50;98823.48;25040;1315;3058591;-63
2022/07/09 06:08:33;;;;;;;20.80;13.10;;;;;;;24.34;58.06;98825.59;25087;1315;3029302;-65
2022/07/09 06:11:06;;;;;;;29.00;12.80;;;;;;;24.50;57.56;98825.77;25116;1315;3054999;-64
2022/07/09 06:13:35;;;;;;;22.90;13.10;;;;;;;24.58;57.01;98821.29;24705;1318;3026416;-64
2022/07/09 06:16:05;;;;;;;21.80;12.80;;;;;;;24.59;55.75;98826.02;25109;1315;3054725;-64
2022/07/09 06:18:34;;;;;;;24.90;13.20;;;;;;;24.55;55.79;98816.73;25035;1315;3026432;-63
2022/07/09 06:21:03;;;;;;;26.20;13.30;;;;;;;24.53;56.29;98822.67;25059;1315;3026691;-64
2022/07/09 06:23:32;;;;;;;27.10;13.20;;;;;;;24.60;55.87;98815.99;25129;1315;3054252;-64
2022/07/09 06:26:01;;;;;;;26.00;12.70;;;;;;;24.67;55.74;98809.13;25111;1315;3027133;-67
2022/07/09 06:28:32;;;;;;;23.10;12.90;;;;;;;24.76;55.14;98803.95;25087;1318;3051228;-62
2022/07/09 06:31:01;;;;;;;24.00;12.90;;;;;;;24.78;55.31;98802.14;25089;1315;3028623;-62
2022/07/09 06:33:30;;;;;;;21.40;12.00;;;;;;;24.86;55.46;98803.75;25009;1315;3069480;-65
2022/07/09 06:35:59;;;;;;;23.30;11.80;;;;;;;25.03;54.44;98799.33;25103;1318;3025982;-64
2022/07/09 06:38:29;;;;;;;26.80;11.90;;;;;;;25.19;53.37;98803.08;25027;1315;3050893;-64
2022/07/09 06:40:58;;;;;;;23.20;12.40;;;;;;;25.22;53.56;98803.90;25080;1316;3026916;-65
2022/07/09 06:43:27;;;;;;;27.10;13.30;;;;;;;25.26;53.48;98803.66;25101;1315;3026691;-64
2022/07/09 06:46:01;;;;;;;23.00;12.50;;;;;;;25.34;53.54;98797.02;25093;1315;3051347;-65
2022/07/09 06:48:30;;;;;;;31.00;12.00;;;;;;;25.50;52.95;98799.09;25076;1316;3027396;-66
2022/07/09 06:50:59;;;;;;;23.20;12.30;;;;;;;25.59;52.33;98798.05;25081;1315;3026351;-66
2022/07/09 06:53:28;;;;;;;27.50;11.60;;;;;;;25.79;52.03;98792.03;25126;1315;3053708;-65
2022/07/09 06:55:57;;;;;;;21.50;12.40;;;;;;;26.00;50.84;98794.16;25058;1315;3026902;-63
2022/07/09 06:58:26;;;;;;;17.20;11.50;;;;;;;26.05;50.32;98788.50;25139;1315;3051255;-69
2022/07/09 07:00:55;;;;;;;24.20;11.60;;;;;;;25.96;49.79;98789.28;25136;1315;3027119;-64
2022/07/09 07:03:24;;;;;;;24.80;12.00;;;;;;;26.04;49.48;98784.52;25132;1315;3049521;-64
2022/07/09 07:05:53;;;;;;;21.70;11.30;;;;;;;26.18;49.20;98781.81;25269;1315;3026614;-63
2022/07/09 07:08:22;;;;;;;22.40;11.20;;;;;;;26.30;48.69;98780.62;25438;1315;3055445;-65
2022/07/09 07:10:52;;;;;;;19.90;11.70;;;;;;;26.45;47.80;98777.98;25446;1315;3026485;-65
2022/07/09 07:13:21;;;;;;;35.10;11.90;;;;;;;26.49;47.54;98780.46;25155;1315;3026344;-65
2022/07/09 07:15:50;;;;;;;28.40;12.20;;;;;;;26.56;47.58;98779.52;25188;1315;3026987;-66
2022/07/09 07:18:19;;;;;;;26.60;11.40;;;;;;;26.66;47.04;98775.59;25074;1318;3051505;-64
2022/07/09 07:20:49;;;;;;;26.60;11.90;;;;;;;26.83;47.10;98775.73;25107;1315;3030090;-66
2022/07/09 07:23:19;;;;;;;17.90;10.60;;;;;;;27.00;46.47;98774.69;25060;1316;3027564;-64
2022/07/09 07:25:48;;;;;;;22.10;11.20;;;;;;;27.13;45.95;98772.65;25126;1315;3027225;-64
2022/07/09 07:28:17;;;;;;;25.00;11.10;;;;;;;27.26;45.21;98767.54;25091;1315;3052050;-64
2022/07/09 07:30:46;;;;;;;17.90;11.00;;;;;;;27.39;45.07;98766.48;25128;1315;3026753;-65
2022/07/09 07:33:15;;;;;;;20.00;11.10;;;;;;;27.61;44.73;98765.38;25076;1315;3026827;-65
2022/07/09 07:38:49;;;;;;;25.90;11.90;;;;;;;27.92;42.19;98759.11;31379;1319;3026755;-65
2022/07/09 07:41:18;;;;;;;25.00;13.40;;;;;;;28.18;41.69;98757.67;24955;1322;3027234;-64
2022/07/09 07:43:47;;;;;;;23.90;11.00;;;;;;;28.52;39.60;98755.09;24941;1322;3026580;-63
2022/07/09 07:46:16;;;;;;;22.60;10.60;;;;;;;28.61;39.31;98745.77;24904;1321;3051210;-65
2022/07/09 07:48:45;;;;;;;25.20;9.10;;;;;;;28.74;37.46;98750.32;24961;1322;3026649;-65
2022/07/09 07:51:16;;;;;;;21.10;9.50;;;;;;;28.80;37.19;98751.62;24753;1319;3384278;-63
2022/07/09 07:53:45;;;;;;;20.00;9.70;;;;;;;28.76;38.56;98749.19;24993;1319;3026686;-65
2022/07/09 07:56:14;;;;;;;27.60;9.30;;;;;;;28.84;39.17;98748.36;25039;1319;3049040;-64
2022/07/09 07:58:44;;;;;;;18.70;7.60;;;;;;;28.92;37.64;98744.29;24990;1318;3026740;-65
2022/07/09 08:01:13;;;;;;;20.20;7.50;;;;;;;29.06;35.40;98747.04;25013;1318;3026488;-64
2022/07/09 08:03:42;;;;;;;15.20;5.80;;;;;;;29.27;33.55;98740.08;25056;1319;3052746;-67
2022/07/09 08:06:11;;;;;;;18.40;7.40;;;;;;;29.49;32.94;98745.09;25006;1318;3026053;-66
2022/07/09 08:08:40;;;;;;;15.80;6.60;;;;;;;29.59;31.97;98735.48;25090;1319;3051267;-65
2022/07/09 08:11:10;;;;;;;17.80;7.60;;;;;;;29.65;32.47;98737.33;25084;1318;3026051;-64
2022/07/09 08:13:40;;;;;;;17.10;8.10;;;;;;;29.70;32.22;98734.15;25045;1318;3049309;-63
2022/07/09 08:16:10;;;;;;;13.80;7.50;;;;;;;29.74;32.54;98734.77;25027;1316;3027491;-64
2022/07/09 08:18:40;;;;;;;20.40;7.70;;;;;;;29.76;32.32;98733.19;25126;1316;3026656;-66
2022/07/09 08:21:09;;;;;;;24.10;8.50;;;;;;;29.94;32.60;98735.27;25057;1319;3025993;-63
2022/07/09 08:23:54;;;;;;;17.10;7.70;;;;;;;30.20;31.67;98730.92;25109;1316;3052051;-64
2022/07/09 08:26:24;;;;;;;15.60;6.60;;;;;;;30.43;29.42;98728.23;25072;1317;3052848;-66
2022/07/09 08:28:53;;;;;;;14.50;5.10;;;;;;;30.63;29.19;98725.87;25068;1319;3026498;-65
2022/07/09 08:31:22;;;;;;;21.10;6.20;;;;;;;30.76;28.53;98719.23;25092;1316;3026685;-65
2022/07/09 08:33:51;;;;;;;16.60;5.10;;;;;;;30.87;28.45;98718.27;25105;1316;3026334;-65
2022/07/09 08:36:21;;;;;;;13.30;3.90;;;;;;;30.92;26.23;98713.71;25132;1316;3026988;-65
2022/07/09 08:38:50;;;;;;;19.40;4.30;;;;;;;31.08;26.31;98716.88;25182;1316;3048903;-64
2022/07/09 08:41:22;;;;;;;13.80;4.30;;;;;;;31.24;26.52;98718.06;25090;1316;3026279;-62
2022/07/09 08:43:53;;;;;;;19.30;4.00;;;;;;;31.35;25.99;98717.41;25136;1314;3070330;-66
2022/07/09 08:46:22;;;;;;;16.30;4.40;;;;;;;31.42;25.86;98717.02;25101;1314;3026652;-64
2022/07/09 08:48:52;;;;;;;10.90;4.00;;;;;;;31.60;25.99;98711.77;25119;1315;3026984;-64
2022/07/09 08:51:21;;;;;;;14.50;4.20;;;;;;;31.76;25.41;98711.47;25078;1316;3026593;-66
2022/07/09 08:53:50;;;;;;;14.00;4.00;;;;;;;31.93;25.10;98710.17;25118;1316;3048212;-65
2022/07/09 08:56:19;;;;;;;16.60;4.40;;;;;;;32.07;24.64;98708.78;25037;1316;3026863;-66
2022/07/09 08:58:48;;;;;;;15.20;3.80;;;;;;;32.19;24.85;98706.78;25115;1315;3070218;-66
2022/07/09 09:01:17;;;;;;;14.50;3.80;;;;;;;32.19;24.64;98703.04;25129;1315;3026660;-64
2022/07/09 09:03:46;;;;;;;13.20;4.20;;;;;;;32.26;24.97;98698.00;25078;1315;3050502;-64
2022/07/09 09:06:15;;;;;;;12.00;3.50;;;;;;;32.42;24.68;98697.52;25110;1315;3028913;-66
2022/07/09 09:08:44;;;;;;;14.90;3.10;;;;;;;32.59;24.38;98689.17;25085;1315;3054813;-64
2022/07/09 09:11:16;;;;;;;16.20;3.50;;;;;;;32.76;24.31;98686.80;25130;1315;3026451;-67
2022/07/09 09:13:47;;;;;;;10.00;3.30;;;;;;;32.87;24.00;98686.85;25076;1318;3026616;-63
2022/07/09 09:16:17;;;;;;;16.60;3.40;;;;;;;32.86;23.82;98681.52;25031;1315;3026742;-61
2022/07/09 09:18:47;;;;;;;14.90;3.10;;;;;;;32.84;23.93;98680.58;25157;1316;3026573;-65
2022/07/09 09:21:20;;;;;;;11.80;3.10;;;;;;;32.86;23.68;98677.66;25103;1315;3026748;-63
2022/07/09 09:23:52;;;;;;;12.60;3.50;;;;;;;32.87;23.58;98675.15;25080;1316;3026913;-65
2022/07/09 09:26:25;;;;;;;14.20;3.20;;;;;;;32.96;23.06;98675.61;25140;1316;3026591;-64
2022/07/09 09:28:55;;;;;;;13.70;3.80;;;;;;;33.15;23.23;98671.45;25059;1314;3054320;-63
2022/07/09 09:31:32;;;;;;;17.80;3.90;;;;;;;33.32;23.67;98670.18;25157;1315;3028578;-67
2022/07/09 09:34:06;;;;;;;14.10;3.80;;;;;;;33.54;23.11;98665.54;25109;1316;3068191;-64
2022/07/09 09:36:39;;;;;;;6.70;3.10;;;;;;;33.55;22.45;98665.16;25116;1316;3026520;-64
2022/07/09 09:39:13;;;;;;;12.60;3.90;;;;;;;33.59;22.71;98663.17;25127;1316;3026049;-65
2022/07/09 09:41:44;;;;;;;11.00;3.90;;;;;;;33.76;22.48;98663.09;25143;1315;3053919;-68
2022/07/09 09:44:18;;;;;;;18.30;4.40;;;;;;;33.79;22.47;98661.27;25149;1316;3028267;-64
2022/07/09 09:46:47;;;;;;;21.90;3.80;;;;;;;33.92;22.44;98660.70;25107;1316;3049375;-64
2022/07/09 09:49:16;;;;;;;8.80;3.10;;;;;;;34.07;22.19;98657.74;25164;1316;3026651;-65
2022/07/09 09:51:47;;;;;;;8.40;2.60;;;;;;;34.18;21.53;98653.20;25097;1316;3027467;-65
2022/07/09 09:54:19;;;;;;;11.00;3.10;;;;;;;34.30;21.46;98660.66;25066;1316;3050231;-64
2022/07/09 09:56:49;;;;;;;10.30;2.90;;;;;;;34.46;21.61;98654.88;25147;1316;3026773;-65
2022/07/09 09:59:18;;;;;;;10.30;2.70;;;;;;;34.68;21.22;98647.44;25126;1315;3026820;-65
2022/07/09 10:01:47;;;;;;;18.20;3.20;;;;;;;34.89;20.79;98645.17;25113;1316;3029196;-63
2022/07/09 10:04:16;;;;;;;9.80;2.50;;;;;;;34.98;20.53;98647.84;25045;1315;3051975;-63
2022/07/09 10:06:47;;;;;;;15.20;3.20;;;;;;;34.88;19.86;98642.27;25118;1315;3026551;-64
2022/07/09 10:09:16;;;;;;;11.20;2.60;;;;;;;34.95;19.80;98644.95;25035;1316;3026622;-65
2022/07/09 10:11:47;;;;;;;9.80;2.70;;;;;;;35.18;19.99;98636.73;25172;1312;3051179;-64
2022/07/09 10:14:32;;;;;;;17.40;2.50;;;;;;;35.36;19.50;98635.30;25099;1316;3027032;-66
2022/07/09 10:17:13;;;;;;;14.00;2.80;;;;;;;35.34;19.92;98632.98;25050;1315;3069209;-62
2022/07/09 10:19:57;;;;;;;13.80;2.80;;;;;;;35.46;20.31;98633.23;25063;1316;3049934;-64
2022/07/09 10:22:40;;;;;;;18.90;3.20;;;;;;;35.68;19.83;98630.73;25138;1316;3052437;-65
2022/07/09 10:25:22;;;;;;;18.90;3.20;;;;;;;35.75;19.44;98625.57;25124;1316;3053015;-64
2022/07/09 10:27:51;;;;;;;16.30;3.00;;;;;;;35.67;19.68;98623.63;25122;1316;3059318;-62
2022/07/09 10:30:31;;;;;;;13.50;2.60;;;;;;;35.76;19.69;98625.25;25057;1316;3026884;-64
2022/07/09 10:33:10;;;;;;;16.30;2.70;;;;;;;35.91;19.34;98617.84;25130;1314;3056126;-64
2022/07/09 10:35:54;;;;;;;9.20;2.70;;;;;;;35.91;19.11;98616.14;25130;1316;3053265;-65
2022/07/09 10:38:33;;;;;;;11.30;2.60;;;;;;;35.73;19.40;98612.31;25110;1316;3068125;-64
2022/07/09 10:41:03;;;;;;;7.70;2.30;;;;;;;35.75;19.74;98612.85;25214;1316;3049275;-65
2022/07/09 10:43:45;;;;;;;8.60;3.00;;;;;;;35.88;19.53;98610.73;25067;1316;3026867;-64
2022/07/09 10:46:14;;;;;;;9.60;3.00;;;;;;;36.02;19.19;98607.22;25086;1316;3051862;-65
2022/07/09 10:48:45;;;;;;;14.50;3.00;;;;;;;36.10;19.32;98603.73;25095;1316;3026676;-64
2022/07/09 10:51:18;;;;;;;15.70;2.90;;;;;;;36.06;19.36;98599.17;25106;1315;3027122;-65
2022/07/09 10:53:47;;;;;;;15.90;2.40;;;;;;;35.94;19.70;98597.21;25155;1315;3027438;-65
2022/07/09 10:56:20;;;;;;;10.50;2.60;;;;;;;35.94;19.52;98588.08;25136;1316;3026348;-64
2022/07/09 10:58:49;;;;;;;18.80;2.80;;;;;;;36.01;19.27;98589.95;25108;1315;3026762;-64
2022/07/09 11:01:24;;;;;;;8.80;2.40;;;;;;;35.94;19.71;98586.55;25157;1316;3027050;-66
2022/07/09 11:03:54;;;;;;;11.40;2.50;;;;;;;35.82;19.43;98585.34;25135;1315;3049881;-66
2022/07/09 11:06:23;;;;;;;15.50;2.50;;;;;;;35.98;19.37;98583.42;25142;1315;3026258;-65
2022/07/09 11:08:53;;;;;;;22.60;3.70;;;;;;;36.06;19.32;98577.90;25113;1316;3027295;-66
2022/07/09 11:11:23;;;;;;;12.60;2.50;;;;;;;36.11;19.62;98576.84;25188;1316;3026441;-64
2022/07/09 11:13:54;;;;;;;16.60;2.90;;;;;;;36.25;19.75;98570.79;25196;1313;3069039;-63
2022/07/09 11:16:26;;;;;;;13.80;2.50;;;;;;;36.54;19.12;98563.52;25490;1314;3025701;-65
2022/07/09 11:18:57;;;;;;;10.00;2.50;;;;;;;36.58;18.70;98562.23;25523;1316;3026183;-65
2022/07/09 11:21:27;;;;;;;14.20;2.90;;;;;;;36.60;18.98;98562.17;25430;1315;3026335;-64